Time;durP1;ratioP1;P1;durP2;ratioP2;P2;SDS_P1;SDS_P2;PMS_P1;PMS_P2;Temp;Humidity;BMP_temperature;BMP_pressure;BME280_temperature;BME280_humidity;BME280_pressure;Samples;Min_cycle;Max_cycle;Signal;HPM_P1;HPM_P2
2022/07/12 00:01:07;;;;;;;1.55;1.17;;;14.90;99.90;;;;;;5075446;28;20127;-73
2022/07/12 00:03:33;;;;;;;1.85;1.20;;;14.90;99.90;;;;;;5075406;28;20124;-73
2022/07/12 00:05:59;;;;;;;1.10;0.90;;;14.90;99.90;;;;;;5075432;28;20046;-73
2022/07/12 00:08:25;;;;;;;1.83;1.10;;;14.90;99.90;;;;;;5075600;28;20571;-73
2022/07/12 00:10:51;;;;;;;1.90;1.40;;;14.90;99.90;;;;;;5075601;28;20048;-73
2022/07/12 00:13:17;;;;;;;2.20;1.38;;;14.90;99.90;;;;;;5058573;28;20047;-73
2022/07/12 00:15:43;;;;;;;3.85;1.60;;;14.90;99.90;;;;;;5058786;28;20036;-73
2022/07/12 00:18:09;;;;;;;2.55;1.70;;;14.90;99.90;;;;;;5075341;28;20090;-73
2022/07/12 00:20:35;;;;;;;2.22;1.50;;;14.90;99.90;;;;;;5075095;28;20058;-73
2022/07/12 00:23:01;;;;;;;1.35;1.08;;;14.90;99.90;;;;;;5075048;28;20037;-73
2022/07/12 00:25:27;;;;;;;1.63;1.20;;;14.90;99.90;;;;;;5075324;28;20040;-73
2022/07/12 00:27:52;;;;;;;1.60;1.50;;;14.90;99.90;;;;;;5074978;28;20037;-73
2022/07/12 00:30:18;;;;;;;3.20;1.13;;;14.80;99.90;;;;;;5074964;28;20447;-73
2022/07/12 00:32:44;;;;;;;1.63;0.90;;;14.80;99.90;;;;;;5075121;28;20047;-73
2022/07/12 00:35:10;;;;;;;2.67;0.85;;;14.70;99.90;;;;;;5075114;28;20086;-73
2022/07/12 00:37:36;;;;;;;3.85;1.20;;;14.70;99.90;;;;;;5074790;28;20501;-73
2022/07/12 00:40:04;;;;;;;1.20;0.95;;;14.60;99.90;;;;;;5074699;28;20045;-73
2022/07/12 00:42:30;;;;;;;1.77;0.90;;;14.60;99.90;;;;;;5074679;28;20094;-73
2022/07/12 00:44:56;;;;;;;2.05;1.00;;;14.60;99.90;;;;;;5074718;28;20037;-73
2022/07/12 00:47:44;;;;;;;2.45;1.58;;;14.50;99.90;;;;;;5074613;28;20142;-73
2022/07/12 00:50:21;;;;;;;3.53;1.13;;;14.50;99.90;;;;;;5057967;28;20040;-73
2022/07/12 00:52:48;;;;;;;2.38;1.25;;;14.50;99.90;;;;;;5074480;28;20523;-73
2022/07/12 00:55:15;;;;;;;1.30;1.20;;;14.40;99.90;;;;;;5057800;28;20040;-73
2022/07/12 00:57:44;;;;;;;2.97;1.30;;;14.40;99.90;;;;;;5074408;28;20381;-73
2022/07/12 01:00:16;;;;;;;1.90;1.25;;;14.40;99.90;;;;;;5057780;28;20063;-73
2022/07/12 01:02:43;;;;;;;2.33;1.00;;;14.40;99.90;;;;;;5057539;28;20037;-73
2022/07/12 01:05:09;;;;;;;1.85;0.80;;;14.30;99.90;;;;;;5073937;28;20051;-73
2022/07/12 01:07:35;;;;;;;0.70;0.70;;;14.20;99.90;;;;;;5074566;28;20493;-73
2022/07/12 01:10:02;;;;;;;3.08;0.90;;;14.20;99.90;;;;;;5057572;28;20044;-73
2022/07/12 01:12:29;;;;;;;1.23;0.75;;;14.10;99.90;;;;;;5074096;28;20049;-73
2022/07/12 01:14:56;;;;;;;1.38;0.80;;;14.10;99.90;;;;;;5074137;28;20070;-73
2022/07/12 01:17:23;;;;;;;1.20;1.00;;;14.10;99.90;;;;;;5057206;28;20041;-73
2022/07/12 01:19:49;;;;;;;1.80;1.00;;;14.10;99.90;;;;;;5074529;28;20037;-73
2022/07/12 01:22:17;;;;;;;2.60;1.20;;;14.10;99.90;;;;;;5074223;28;20119;-73
2022/07/12 01:24:46;;;;;;;2.60;1.23;;;14.10;99.90;;;;;;5057247;28;20044;-73
2022/07/12 01:27:12;;;;;;;2.20;1.17;;;14.00;99.90;;;;;;5074164;28;20041;-73
2022/07/12 01:29:39;;;;;;;1.30;0.90;;;14.00;99.90;;;;;;5074135;28;20036;-73
2022/07/12 01:32:24;;;;;;;2.92;1.10;;;14.00;99.90;;;;;;5057036;28;20045;-73
2022/07/12 01:35:05;;;;;;;1.30;1.10;;;14.00;99.90;;;;;;5074027;28;20067;-73
2022/07/12 01:37:34;;;;;;;1.52;1.13;;;14.00;99.90;;;;;;5073791;28;20047;-73
2022/07/12 01:40:01;;;;;;;2.28;1.15;;;13.90;99.90;;;;;;5073637;28;20036;-73
2022/07/12 01:42:28;;;;;;;2.97;1.27;;;13.90;99.90;;;;;;5056864;28;20036;-73
2022/07/12 01:44:55;;;;;;;1.55;0.70;;;13.90;99.90;;;;;;5073612;28;20128;-73
2022/07/12 01:47:22;;;;;;;1.10;1.00;;;13.90;99.90;;;;;;5073817;28;20065;-73
2022/07/12 01:49:47;;;;;;;1.48;1.20;;;13.80;99.90;;;;;;5073708;28;20144;-73
2022/07/12 01:52:14;;;;;;;2.67;1.40;;;13.80;99.90;;;;;;5073344;28;20548;-73
2022/07/12 01:54:40;;;;;;;1.80;1.00;;;13.80;99.90;;;;;;5073330;28;20043;-73
2022/07/12 01:57:06;;;;;;;2.88;1.00;;;13.70;99.90;;;;;;5056723;28;20087;-73
2022/07/12 01:59:32;;;;;;;2.78;1.10;;;13.70;99.90;;;;;;5073253;28;20072;-73
2022/07/12 02:01:58;;;;;;;1.33;1.13;;;13.60;99.90;;;;;;5073227;28;20066;-73
2022/07/12 02:04:24;;;;;;;2.10;1.10;;;13.60;99.90;;;;;;5073330;28;20036;-73
2022/07/12 02:06:50;;;;;;;1.70;1.20;;;13.60;99.90;;;;;;5073145;28;20119;-73
2022/07/12 02:09:17;;;;;;;1.65;1.27;;;13.60;99.90;;;;;;5073048;28;20040;-73
2022/07/12 02:11:43;;;;;;;3.85;1.23;;;13.60;99.90;;;;;;5073015;28;20048;-73
2022/07/12 02:14:09;;;;;;;1.75;1.00;;;13.50;99.90;;;;;;5072881;28;20492;-73
2022/07/12 02:16:35;;;;;;;2.38;1.00;;;13.50;99.90;;;;;;5056570;28;20436;-73
2022/07/12 02:19:01;;;;;;;1.85;1.17;;;13.50;99.90;;;;;;5056068;28;20481;-73
2022/07/12 02:21:27;;;;;;;1.75;1.00;;;13.50;99.90;;;;;;5073090;28;20032;-73
2022/07/12 02:23:53;;;;;;;2.20;1.35;;;13.50;99.90;;;;;;5072980;28;20428;-73
2022/07/12 02:26:19;;;;;;;1.30;1.00;;;13.40;99.90;;;;;;5073026;28;20122;-73
2022/07/12 02:28:44;;;;;;;3.17;1.10;;;13.50;99.90;;;;;;5072943;28;20489;-73
2022/07/12 02:31:10;;;;;;;1.60;1.20;;;13.40;99.90;;;;;;5072637;28;20046;-73
2022/07/12 02:33:35;;;;;;;3.08;1.10;;;13.40;99.90;;;;;;5072555;28;20484;-73
2022/07/12 02:36:02;;;;;;;2.60;0.90;;;13.40;99.90;;;;;;5072841;28;20101;-73
2022/07/12 02:38:28;;;;;;;1.90;1.02;;;13.40;99.90;;;;;;5056046;28;20049;-73
2022/07/12 02:40:53;;;;;;;4.65;1.15;;;13.40;99.90;;;;;;5072467;28;20032;-73
2022/07/12 02:43:23;;;;;;;2.78;1.20;;;13.40;99.90;;;;;;5072660;28;20397;-73
2022/07/12 02:45:49;;;;;;;2.42;1.35;;;13.50;99.90;;;;;;5072372;28;20082;-73
2022/07/12 02:48:14;;;;;;;3.20;1.63;;;13.40;99.90;;;;;;5055626;28;20032;-73
2022/07/12 02:50:40;;;;;;;2.05;1.30;;;13.40;99.90;;;;;;5055707;28;20040;-73
2022/07/12 02:53:06;;;;;;;4.13;1.50;;;13.40;99.90;;;;;;5055808;28;20048;-73
2022/07/12 02:55:32;;;;;;;2.72;1.83;;;13.30;99.90;;;;;;5072216;28;20094;-73
2022/07/12 02:57:57;;;;;;;3.15;1.20;;;13.30;99.90;;;;;;5072149;28;20068;-73
2022/07/12 03:00:23;;;;;;;2.40;1.02;;;13.30;99.90;;;;;;5072128;28;20033;-73
2022/07/12 03:02:49;;;;;;;1.33;0.70;;;13.20;99.90;;;;;;5072052;28;20040;-73
2022/07/12 03:05:15;;;;;;;1.60;0.85;;;13.20;99.90;;;;;;5072372;28;20033;-73
2022/07/12 03:07:40;;;;;;;1.60;0.70;;;13.20;99.90;;;;;;5072029;28;20517;-73
2022/07/12 03:10:06;;;;;;;0.70;0.60;;;13.10;99.90;;;;;;5055604;28;20044;-73
2022/07/12 03:12:32;;;;;;;1.17;0.88;;;13.10;99.90;;;;;;5071918;28;20059;-73
2022/07/12 03:14:58;;;;;;;1.75;1.23;;;13.10;99.90;;;;;;5055297;28;20045;-73
2022/07/12 03:17:23;;;;;;;1.35;0.82;;;13.00;99.90;;;;;;5071882;28;20043;-73
2022/07/12 03:19:49;;;;;;;1.00;0.70;;;13.00;99.90;;;;;;5072079;28;20045;-73
2022/07/12 03:22:14;;;;;;;0.98;0.63;;;13.00;99.90;;;;;;5072102;28;20547;-73
2022/07/12 03:24:40;;;;;;;3.83;0.60;;;13.00;99.90;;;;;;5072110;28;20374;-73
2022/07/12 03:27:06;;;;;;;0.70;0.50;;;12.90;99.90;;;;;;5071666;28;20550;-73
2022/07/12 03:29:31;;;;;;;1.10;0.50;;;12.80;99.90;;;;;;5055049;28;20436;-73
2022/07/12 03:31:57;;;;;;;1.35;0.40;;;12.80;99.90;;;;;;5071777;28;20048;-73
2022/07/12 03:34:23;;;;;;;2.33;0.75;;;12.70;99.90;;;;;;5071747;28;20448;-73
2022/07/12 03:36:48;;;;;;;1.20;0.93;;;12.70;99.90;;;;;;5055076;28;20086;-73
2022/07/12 03:39:14;;;;;;;3.83;0.75;;;12.70;99.90;;;;;;5071963;28;20072;-73
2022/07/12 03:41:39;;;;;;;2.50;0.90;;;12.70;99.90;;;;;;5071713;28;20127;-73
2022/07/12 03:44:06;;;;;;;1.55;0.50;;;12.80;99.90;;;;;;5071888;28;20033;-73
2022/07/12 03:46:32;;;;;;;4.10;0.77;;;12.70;99.90;;;;;;5071692;28;20123;-73
2022/07/12 03:48:59;;;;;;;1.70;1.08;;;12.70;99.90;;;;;;5054929;28;20037;-73
2022/07/12 03:51:25;;;;;;;2.13;0.80;;;12.70;99.90;;;;;;5055195;28;20040;-73
2022/07/12 03:53:50;;;;;;;1.15;0.98;;;12.70;99.90;;;;;;5071799;28;20040;-73
2022/07/12 03:59:02;;;;;;;0.80;0.40;;;12.70;99.90;;;;;;5051325;28;20101;-73
2022/07/12 04:01:28;;;;;;;1.05;0.60;;;12.70;99.90;;;;;;5071506;28;20492;-73
2022/07/12 04:03:55;;;;;;;1.23;0.70;;;12.60;99.90;;;;;;5071453;28;20047;-73
2022/07/12 04:06:21;;;;;;;2.92;0.80;;;12.60;99.90;;;;;;5071479;28;20086;-73
2022/07/12 04:08:47;;;;;;;2.78;0.80;;;12.60;99.90;;;;;;5071449;28;20028;-73
2022/07/12 04:11:13;;;;;;;3.50;1.13;;;12.60;99.90;;;;;;5071441;28;20053;-73
2022/07/12 04:13:38;;;;;;;2.35;1.30;;;12.70;99.90;;;;;;5054705;28;20036;-73
2022/07/12 04:16:05;;;;;;;2.92;1.33;;;12.80;99.90;;;;;;5071343;28;20044;-73
2022/07/12 04:18:31;;;;;;;2.35;1.73;;;12.90;99.90;;;;;;5054486;28;20036;-73
2022/07/12 04:20:56;;;;;;;5.00;1.50;;;13.00;99.90;;;;;;5071237;28;20161;-73
2022/07/12 04:23:22;;;;;;;2.60;1.52;;;13.00;99.90;;;;;;5054817;28;20123;-73
2022/07/12 04:25:48;;;;;;;2.53;1.30;;;13.10;99.90;;;;;;5071534;28;20508;-73
2022/07/12 04:28:13;;;;;;;2.42;1.50;;;13.10;99.90;;;;;;5071264;28;20508;-73
2022/07/12 04:30:39;;;;;;;2.63;1.50;;;13.20;99.90;;;;;;5054559;28;20079;-73
2022/07/12 04:33:05;;;;;;;3.80;1.60;;;13.30;99.90;;;;;;5071188;28;20036;-73
2022/07/12 04:35:31;;;;;;;3.38;1.65;;;13.30;99.90;;;;;;5054475;28;20045;-73
2022/07/12 04:37:56;;;;;;;3.17;1.30;;;13.40;99.90;;;;;;5054485;28;20044;-73
2022/07/12 04:40:22;;;;;;;3.03;1.55;;;13.40;99.90;;;;;;5074379;28;20127;-73
2022/07/12 04:42:48;;;;;;;5.30;1.90;;;13.40;99.90;;;;;;5074697;28;20040;-73
2022/07/12 04:45:13;;;;;;;4.72;1.73;;;13.40;99.90;;;;;;5074670;28;20032;-73
2022/07/12 04:47:39;;;;;;;2.60;1.75;;;13.40;99.90;;;;;;5057976;28;20078;-73
2022/07/12 04:50:06;;;;;;;3.85;1.50;;;13.40;99.90;;;;;;5074601;28;20037;-73
2022/07/12 04:52:33;;;;;;;1.33;1.10;;;13.40;99.90;;;;;;5074747;28;20063;-73
2022/07/12 04:54:58;;;;;;;1.85;1.55;;;13.40;99.90;;;;;;5074514;28;20489;-73
2022/07/12 04:57:24;;;;;;;3.03;1.50;;;13.50;99.90;;;;;;5074507;28;20048;-73
2022/07/12 04:59:49;;;;;;;3.90;1.50;;;13.60;99.90;;;;;;5074367;28;20043;-73
2022/07/12 05:02:15;;;;;;;3.88;1.42;;;13.60;99.90;;;;;;5074318;28;20071;-73
2022/07/12 05:04:41;;;;;;;2.90;1.75;;;13.60;99.90;;;;;;5074610;28;20037;-73
2022/07/12 05:07:06;;;;;;;5.35;2.00;;;13.70;99.90;;;;;;5074343;28;20037;-73
2022/07/12 05:09:32;;;;;;;4.75;1.80;;;13.80;99.90;;;;;;5074243;28;20039;-73
2022/07/12 05:11:57;;;;;;;1.90;1.65;;;13.90;99.90;;;;;;5074493;28;20033;-73
2022/07/12 05:14:23;;;;;;;4.32;2.45;;;14.00;99.90;;;;;;5074089;28;20405;-73
2022/07/12 05:16:49;;;;;;;2.67;1.98;;;14.10;99.90;;;;;;5057754;28;20048;-73
2022/07/12 05:19:15;;;;;;;3.80;2.83;;;14.20;99.90;;;;;;5074164;28;20037;-73
2022/07/12 05:21:42;;;;;;;3.80;2.75;;;14.30;99.90;;;;;;5074063;28;20064;-73
2022/07/12 05:24:08;;;;;;;4.47;3.20;;;14.40;99.90;;;;;;5073959;28;20036;-73
2022/07/12 05:26:34;;;;;;;7.30;3.40;;;14.50;99.90;;;;;;5073978;28;20043;-72
2022/07/12 05:28:59;;;;;;;6.00;3.47;;;14.60;99.90;;;;;;5057478;28;20059;-73
2022/07/12 05:31:26;;;;;;;4.97;3.25;;;14.70;99.90;;;;;;5073893;28;20037;-73
2022/07/12 05:33:52;;;;;;;5.20;3.83;;;14.80;99.90;;;;;;5073790;28;20496;-73
2022/07/12 05:36:18;;;;;;;4.50;3.53;;;14.90;99.90;;;;;;5074010;28;20045;-73
2022/07/12 05:38:43;;;;;;;6.55;3.85;;;15.10;99.90;;;;;;5073970;28;20560;-73
2022/07/12 05:41:09;;;;;;;5.30;4.07;;;15.20;99.90;;;;;;5057033;28;20504;-73
2022/07/12 05:43:34;;;;;;;6.25;4.13;;;15.30;99.90;;;;;;5073654;28;20566;-73
2022/07/12 05:46:00;;;;;;;5.97;3.92;;;15.40;99.90;;;;;;5073598;28;20040;-73
2022/07/12 05:48:26;;;;;;;5.28;3.78;;;15.50;99.90;;;;;;5073516;28;20047;-73
2022/07/12 05:50:52;;;;;;;4.57;4.15;;;15.60;99.90;;;;;;5073177;28;20047;-73
2022/07/12 05:53:23;;;;;;;4.75;4.22;;;15.70;99.90;;;;;;5073320;28;20045;-73
2022/07/12 05:55:53;;;;;;;4.50;3.75;;;15.90;99.90;;;;;;5073401;28;20047;-73
2022/07/12 05:58:20;;;;;;;5.75;4.05;;;16.00;99.90;;;;;;5073321;28;20119;-73
2022/07/12 06:00:46;;;;;;;5.70;3.90;;;16.00;99.90;;;;;;5056583;28;20040;-73
2022/07/12 06:03:13;;;;;;;4.03;3.40;;;16.10;99.90;;;;;;5074404;28;20048;-73
2022/07/12 06:05:39;;;;;;;6.13;4.20;;;16.10;99.90;;;;;;5073159;28;20044;-73
2022/07/12 06:08:06;;;;;;;4.80;3.80;;;16.20;99.90;;;;;;5073207;28;20488;-73
2022/07/12 06:10:32;;;;;;;6.25;4.13;;;16.20;99.90;;;;;;5073145;28;20056;-73
2022/07/12 06:12:58;;;;;;;4.32;3.63;;;16.30;99.90;;;;;;5073011;28;20076;-73
2022/07/12 06:15:24;;;;;;;5.80;3.30;;;16.30;99.90;;;;;;5073222;28;20079;-73
2022/07/12 06:17:52;;;;;;;5.25;3.60;;;16.40;99.90;;;;;;5073013;28;20424;-72
2022/07/12 06:20:17;;;;;;;5.28;3.83;;;16.50;99.90;;;;;;5072727;28;20040;-72
2022/07/12 06:22:43;;;;;;;5.40;3.53;;;16.50;99.90;;;;;;5072749;28;20036;-72
2022/07/12 06:25:09;;;;;;;4.15;3.42;;;16.50;99.90;;;;;;5073056;28;20119;-72
2022/07/12 06:27:34;;;;;;;6.47;3.60;;;16.60;99.90;;;;;;5073007;28;20041;-72
2022/07/12 06:30:00;;;;;;;5.07;4.00;;;16.60;99.90;;;;;;5072752;28;20500;-73
2022/07/12 06:32:26;;;;;;;6.40;4.10;;;16.70;99.90;;;;;;5072567;28;20047;-73
2022/07/12 06:34:51;;;;;;;5.10;3.83;;;16.70;99.90;;;;;;5072558;28;20044;-73
2022/07/12 06:37:17;;;;;;;4.53;3.50;;;16.80;99.90;;;;;;5072806;28;20048;-73
2022/07/12 06:39:43;;;;;;;4.82;4.25;;;16.90;99.90;;;;;;5072414;28;20040;-73
2022/07/12 06:42:09;;;;;;;4.63;3.90;;;16.90;99.90;;;;;;5072418;28;20040;-73
2022/07/12 06:44:35;;;;;;;6.63;3.92;;;17.00;99.90;;;;;;5056025;28;20037;-73
2022/07/12 06:47:01;;;;;;;6.30;3.60;;;17.00;99.90;;;;;;5055766;28;20516;-73
2022/07/12 06:49:26;;;;;;;7.00;4.25;;;17.10;99.90;;;;;;5055653;28;20044;-73
2022/07/12 06:51:52;;;;;;;5.15;3.60;;;17.10;99.90;;;;;;5072298;28;20059;-73
2022/07/12 06:54:18;;;;;;;5.45;3.42;;;17.10;99.90;;;;;;5072439;28;20068;-73
2022/07/12 06:56:43;;;;;;;4.13;3.60;;;17.20;99.90;;;;;;5072457;28;20051;-73
2022/07/12 06:59:10;;;;;;;4.35;3.95;;;17.30;99.90;;;;;;5072082;28;20051;-73
2022/07/12 07:01:37;;;;;;;4.65;3.85;;;17.30;99.90;;;;;;5071522;28;20558;-73
2022/07/12 07:04:03;;;;;;;4.57;4.00;;;17.40;99.90;;;;;;5072032;28;20392;-73
2022/07/12 07:06:29;;;;;;;5.50;4.10;;;17.40;99.90;;;;;;5072326;28;20032;-73
2022/07/12 07:08:54;;;;;;;5.90;4.07;;;17.50;99.90;;;;;;5072288;28;20033;-73
2022/07/12 07:11:20;;;;;;;6.68;3.97;;;17.60;99.90;;;;;;5055399;28;20431;-73
2022/07/12 07:13:46;;;;;;;7.47;4.07;;;17.60;99.90;;;;;;5072216;28;20053;-73
2022/07/12 07:16:13;;;;;;;5.07;4.05;;;17.80;99.90;;;;;;5071941;28;20447;-73
2022/07/12 07:18:39;;;;;;;4.80;3.65;;;17.90;99.90;;;;;;5055403;28;20044;-73
2022/07/12 07:21:05;;;;;;;5.47;4.05;;;18.00;99.90;;;;;;5055209;28;20040;-73
2022/07/12 07:23:32;;;;;;;5.90;3.45;;;18.10;99.90;;;;;;5072213;28;20047;-74
2022/07/12 07:25:58;;;;;;;4.05;3.65;;;18.30;99.90;;;;;;5055155;28;20127;-73
2022/07/12 07:28:24;;;;;;;4.30;3.85;;;18.40;99.90;;;;;;5071785;28;20095;-73
2022/07/12 07:30:52;;;;;;;4.85;4.03;;;18.60;99.90;;;;;;5055152;28;20064;-73
2022/07/12 07:33:19;;;;;;;4.00;3.60;;;18.80;99.90;;;;;;5072020;28;20500;-73
2022/07/12 07:35:45;;;;;;;5.40;3.90;;;18.90;99.90;;;;;;5071795;28;20493;-73
2022/07/12 07:38:11;;;;;;;6.95;4.13;;;19.10;99.90;;;;;;5071781;28;20048;-73
2022/07/12 07:40:37;;;;;;;4.32;3.60;;;19.20;99.90;;;;;;5071649;28;20168;-72
2022/07/12 07:43:02;;;;;;;6.78;3.78;;;19.30;99.90;;;;;;5054947;28;20036;-72
2022/07/12 07:45:28;;;;;;;4.00;3.50;;;19.40;99.90;;;;;;5071881;28;20036;-72
2022/07/12 07:47:53;;;;;;;4.03;3.63;;;19.50;99.90;;;;;;5071920;28;20048;-73
2022/07/12 07:50:19;;;;;;;4.18;3.78;;;19.60;99.90;;;;;;5071660;28;20050;-73
2022/07/12 07:52:45;;;;;;;5.28;3.80;;;19.80;99.90;;;;;;5071544;28;20040;-73
2022/07/12 07:55:11;;;;;;;4.63;4.10;;;19.80;99.90;;;;;;5071592;28;20044;-73
2022/07/12 07:57:36;;;;;;;5.05;3.90;;;19.90;99.90;;;;;;5071578;28;20036;-73
2022/07/12 08:00:03;;;;;;;8.05;4.15;;;20.00;99.90;;;;;;5071605;28;20048;-73
2022/07/12 08:02:29;;;;;;;6.47;4.20;;;20.10;99.90;;;;;;5071381;28;20493;-73
2022/07/12 08:04:54;;;;;;;4.80;4.25;;;20.20;99.90;;;;;;5071503;28;20106;-73
2022/07/12 08:07:20;;;;;;;4.68;4.10;;;20.40;99.90;;;;;;5071492;28;20036;-73
2022/07/12 08:09:45;;;;;;;5.35;3.78;;;20.60;99.90;;;;;;5071468;28;20131;-73
2022/07/12 08:12:11;;;;;;;5.93;4.00;;;20.80;99.90;;;;;;5071301;28;20050;-73
2022/07/12 08:14:36;;;;;;;4.10;3.70;;;20.90;99.90;;;;;;5075339;28;20076;-73
2022/07/12 08:17:02;;;;;;;4.10;3.70;;;21.10;99.90;;;;;;5075275;28;20047;-73
2022/07/12 08:19:28;;;;;;;5.38;4.00;;;21.20;99.90;;;;;;5075014;28;20144;-73
2022/07/12 08:21:53;;;;;;;5.85;3.72;;;21.40;99.90;;;;;;5075224;28;20036;-73
2022/07/12 08:24:19;;;;;;;3.33;3.03;;;21.50;99.90;;;;;;5058404;28;20032;-73
2022/07/12 08:26:45;;;;;;;3.63;3.13;;;21.60;99.90;;;;;;5075073;28;20040;-73
2022/07/12 08:29:10;;;;;;;5.57;3.10;;;21.60;99.90;;;;;;5075053;28;20068;-73
2022/07/12 08:31:36;;;;;;;2.97;2.50;;;21.60;99.90;;;;;;5074980;28;20037;-73
2022/07/12 08:34:02;;;;;;;4.18;2.70;;;21.60;99.90;;;;;;5074895;28;20032;-73
2022/07/12 08:36:27;;;;;;;3.38;2.30;;;21.70;99.90;;;;;;5074858;28;20144;-73
2022/07/12 08:38:53;;;;;;;3.15;2.85;;;21.70;99.90;;;;;;5075134;28;20033;-73
2022/07/12 08:41:18;;;;;;;4.07;2.90;;;21.80;99.90;;;;;;5058144;28;20539;-73
2022/07/12 08:43:44;;;;;;;3.00;2.17;;;21.80;99.90;;;;;;5076196;28;20059;-73
2022/07/12 08:46:12;;;;;;;3.30;2.40;;;22.00;99.90;;;;;;5074612;28;20037;-73
2022/07/12 08:48:40;;;;;;;3.70;2.90;;;22.10;99.90;;;;;;5058020;28;20041;-73
2022/07/12 08:51:11;;;;;;;3.35;2.75;;;22.20;99.90;;;;;;5074913;28;20068;-73
2022/07/12 08:53:37;;;;;;;3.20;2.53;;;22.30;99.90;;;;;;5074509;28;20051;-73
2022/07/12 08:56:04;;;;;;;3.20;2.38;;;22.50;99.90;;;;;;5057832;28;20036;-73
2022/07/12 08:58:30;;;;;;;3.85;2.35;;;22.60;99.90;;;;;;5057762;28;20489;-73
2022/07/12 09:00:56;;;;;;;3.25;2.53;;;22.70;99.90;;;;;;5074393;28;20044;-73
2022/07/12 09:03:22;;;;;;;3.70;2.47;;;22.80;99.90;;;;;;5074349;28;20037;-73
2022/07/12 09:05:52;;;;;;;6.10;2.78;;;22.90;99.90;;;;;;5074365;28;20032;-73
2022/07/12 09:08:23;;;;;;;3.25;2.85;;;23.00;99.90;;;;;;5074350;28;20037;-73
2022/07/12 09:11:03;;;;;;;4.22;2.55;;;23.20;99.90;;;;;;5074379;28;20043;-73
2022/07/12 09:13:49;;;;;;;2.97;2.35;;;23.30;99.90;;;;;;5074165;28;20067;-73
2022/07/12 09:16:16;;;;;;;3.58;2.75;;;23.50;99.90;;;;;;5057520;28;20032;-71
2022/07/12 09:18:43;;;;;;;4.07;2.45;;;23.60;99.90;;;;;;5074001;28;20127;-71
2022/07/12 09:21:09;;;;;;;3.67;2.60;;;23.60;99.90;;;;;;5074023;28;20045;-71
2022/07/12 09:23:34;;;;;;;3.70;2.65;;;23.80;99.90;;;;;;5074008;28;20040;-71
2022/07/12 09:26:07;;;;;;;4.82;2.20;;;23.90;99.90;;;;;;5073310;28;20086;-71
2022/07/12 09:28:33;;;;;;;4.93;2.30;;;24.00;99.90;;;;;;5057260;28;20417;-71
2022/07/12 09:30:58;;;;;;;3.78;2.47;;;24.20;99.90;;;;;;5073919;28;20043;-71
2022/07/12 09:36:24;;;;;;;2.40;1.40;;;24.50;99.90;;;;;;5038861;28;20059;-71
2022/07/12 09:38:54;;;;;;;2.92;1.55;;;24.60;99.90;;;;;;5073785;28;20036;-71
2022/07/12 09:41:23;;;;;;;5.30;1.50;;;24.70;99.90;;;;;;5073659;28;20039;-71
2022/07/12 09:43:50;;;;;;;2.58;1.52;;;24.70;99.90;;;;;;5073586;28;20043;-71
2022/07/12 09:46:17;;;;;;;2.63;1.40;;;24.70;99.90;;;;;;5073574;28;20501;-71
2022/07/12 09:48:46;;;;;;;3.08;1.30;;;24.80;99.90;;;;;;5073794;28;20041;-71
2022/07/12 09:51:17;;;;;;;2.22;1.77;;;24.80;99.90;;;;;;5056819;28;20047;-71
2022/07/12 09:53:48;;;;;;;4.22;2.13;;;24.80;99.90;;;;;;5056735;28;20538;-71
2022/07/12 09:56:15;;;;;;;2.15;1.33;;;24.80;99.90;;;;;;5073382;28;20047;-71
2022/07/12 09:58:55;;;;;;;3.03;1.48;;;24.80;99.90;;;;;;5073288;28;20040;-71
2022/07/12 10:01:23;;;;;;;1.88;1.35;;;25.10;99.90;;;;;;5073424;28;20045;-71
2022/07/12 10:03:50;;;;;;;2.35;1.90;;;25.30;99.90;;;;;;5056464;28;20041;-71
2022/07/12 10:06:29;;;;;;;2.05;1.52;;;25.50;99.90;;;;;;5073111;28;20505;-71
2022/07/12 10:08:58;;;;;;;4.03;1.48;;;25.60;99.90;;;;;;5073171;28;20037;-71
2022/07/12 10:11:24;;;;;;;1.80;1.45;;;25.70;99.90;;;;;;5073306;28;20131;-71
2022/07/12 10:13:51;;;;;;;2.92;1.30;;;25.70;99.90;;;;;;5072941;28;20048;-71
2022/07/12 10:16:26;;;;;;;2.90;1.50;;;25.90;99.90;;;;;;5073174;28;20090;-71
2022/07/12 10:19:27;;;;;;;3.55;1.85;;;26.10;99.90;;;;;;5056323;28;20071;-71
2022/07/12 10:21:58;;;;;;;4.68;1.60;;;26.00;99.90;;;;;;5072816;28;20390;-71
2022/07/12 10:24:33;;;;;;;2.35;1.30;;;26.10;99.90;;;;;;5073022;28;20024;-71
2022/07/12 10:27:14;;;;;;;2.75;1.42;;;26.20;99.90;;;;;;5072759;28;20040;-71
2022/07/12 10:29:43;;;;;;;1.95;1.17;;;26.30;99.90;;;;;;5056086;28;20037;-71
2022/07/12 10:32:35;;;;;;;4.65;1.95;;;26.40;99.90;;;;;;5072615;28;20048;-71
2022/07/12 10:35:02;;;;;;;3.35;1.30;;;26.50;99.90;;;;;;5072581;28;20400;-71
2022/07/12 10:37:28;;;;;;;3.58;1.00;;;26.40;99.90;;;;;;5054889;28;20090;-71
2022/07/12 10:40:18;;;;;;;2.67;1.05;;;26.40;99.90;;;;;;5072455;28;20120;-70
2022/07/12 10:43:05;;;;;;;3.45;1.05;;;26.40;99.90;;;;;;5055913;28;20123;-71
2022/07/12 10:45:38;;;;;;;1.88;1.05;;;26.60;99.90;;;;;;5072574;28;20037;-71
2022/07/12 10:48:18;;;;;;;0.88;0.60;;;26.80;99.90;;;;;;5072562;28;20055;-71
2022/07/12 10:50:44;;;;;;;0.68;0.50;;;26.90;99.90;;;;;;5055697;28;20037;-71
2022/07/12 10:53:20;;;;;;;2.80;0.60;;;27.00;99.90;;;;;;5072368;28;20044;-70
2022/07/12 10:56:04;;;;;;;4.57;0.70;;;27.10;98.00;;;;;;5072484;28;20048;-70
2022/07/12 10:58:32;;;;;;;2.25;0.57;;;27.20;98.30;;;;;;5072204;28;20036;-70
2022/07/12 11:01:31;;;;;;;2.53;0.73;;;27.30;98.00;;;;;;5072199;28;20067;-70
2022/07/12 11:04:10;;;;;;;1.35;0.68;;;27.50;97.50;;;;;;5034769;28;20517;-70
2022/07/12 11:06:38;;;;;;;1.25;0.60;;;27.50;91.30;;;;;;5018240;28;20106;-70
2022/07/12 11:09:07;;;;;;;1.17;0.57;;;27.40;94.30;;;;;;5034552;28;20436;-70
2022/07/12 11:11:43;;;;;;;0.70;0.35;;;27.40;95.70;;;;;;5034637;28;20040;-70
2022/07/12 11:14:09;;;;;;;2.00;0.60;;;27.60;98.80;;;;;;5034789;28;20092;-70
2022/07/12 11:16:42;;;;;;;2.67;0.60;;;27.70;93.80;;;;;;5018452;28;20171;-70
2022/07/12 11:19:08;;;;;;;0.57;0.30;;;27.90;96.10;;;;;;5034331;28;20750;-69
2022/07/12 11:21:34;;;;;;;0.60;0.40;;;28.10;94.60;;;;;;5034324;28;20045;-70
2022/07/12 11:24:01;;;;;;;0.95;0.50;;;28.20;94.30;;;;;;5034335;28;20103;-70
2022/07/12 11:26:27;;;;;;;1.90;0.50;;;28.30;91.40;;;;;;5034627;28;20148;-70
2022/07/12 11:28:57;;;;;;;1.75;0.60;;;28.40;93.60;;;;;;5034581;28;20401;-70
2022/07/12 11:31:25;;;;;;;1.15;0.45;;;28.40;88.70;;;;;;5034412;28;20124;-70
2022/07/12 11:33:51;;;;;;;1.60;0.40;;;28.50;86.70;;;;;;5034452;28;20132;-70
2022/07/12 11:36:17;;;;;;;2.47;0.50;;;28.50;91.90;;;;;;5034346;28;20120;-70
2022/07/12 11:38:44;;;;;;;3.20;0.63;;;28.60;90.40;;;;;;5038476;28;20052;-70
2022/07/12 11:41:11;;;;;;;2.72;0.60;;;28.60;91.00;;;;;;5072180;28;20048;-70
2022/07/12 11:43:38;;;;;;;0.70;0.40;;;28.60;90.00;;;;;;5071741;28;20119;-70
2022/07/12 11:46:05;;;;;;;4.88;0.50;;;28.70;81.20;;;;;;5071630;28;20048;-70
2022/07/12 11:48:35;;;;;;;1.38;0.50;;;28.80;80.50;;;;;;5057260;28;20037;-70
2022/07/12 11:51:05;;;;;;;1.40;0.40;;;28.90;80.50;;;;;;5076018;28;20051;-71
2022/07/12 11:53:32;;;;;;;2.13;0.50;;;29.00;75.00;;;;;;5075601;28;20075;-71
2022/07/12 11:55:59;;;;;;;1.30;0.30;;;29.00;74.00;;;;;;5075729;28;20040;-71
2022/07/12 11:58:26;;;;;;;1.15;0.40;;;29.00;73.20;;;;;;5075650;28;20122;-71
2022/07/12 12:00:53;;;;;;;0.88;0.43;;;29.00;71.60;;;;;;5058934;28;20041;-72
2022/07/12 12:03:21;;;;;;;1.13;0.60;;;29.00;68.60;;;;;;5059105;28;20381;-70
2022/07/12 12:05:48;;;;;;;2.00;0.50;;;28.90;69.40;;;;;;5075628;28;20492;-70
2022/07/12 12:08:15;;;;;;;2.45;0.40;;;28.90;71.20;;;;;;5058794;28;20089;-70
2022/07/12 12:10:41;;;;;;;0.68;0.30;;;28.90;65.70;;;;;;5075435;28;20054;-70
2022/07/12 12:13:16;;;;;;;1.58;0.50;;;29.00;66.00;;;;;;5075377;28;20048;-70
2022/07/12 12:15:52;;;;;;;2.03;0.43;;;29.20;67.70;;;;;;5075353;28;20037;-70
2022/07/12 12:18:28;;;;;;;9.98;0.77;;;29.50;69.80;;;;;;5058421;28;20051;-69
2022/07/12 12:20:58;;;;;;;2.72;0.70;;;29.50;68.10;;;;;;5075142;28;20041;-70
2022/07/12 12:23:24;;;;;;;4.10;0.63;;;29.50;65.70;;;;;;5074994;28;20497;-70
2022/07/12 12:25:49;;;;;;;2.83;0.70;;;29.50;65.20;;;;;;5075321;28;20140;-70
2022/07/12 12:28:15;;;;;;;2.55;0.85;;;29.50;64.10;;;;;;5058679;28;20370;-70
2022/07/12 12:31:10;;;;;;;1.23;0.70;;;29.60;65.30;;;;;;5075061;28;20516;-70
2022/07/12 12:33:44;;;;;;;0.68;0.50;;;29.70;65.40;;;;;;5066241;28;20052;-70
2022/07/12 12:36:26;;;;;;;2.47;0.55;;;29.70;64.00;;;;;;5058230;28;20037;-70
2022/07/12 12:38:54;;;;;;;2.40;0.60;;;29.90;66.50;;;;;;5075154;28;20053;-71
2022/07/12 12:41:24;;;;;;;2.80;0.70;;;29.80;63.30;;;;;;5058139;28;20058;-69
2022/07/12 12:44:07;;;;;;;2.72;0.70;;;29.70;64.80;;;;;;5058035;28;20045;-69
2022/07/12 12:49:46;;;;;;;1.92;0.70;;;29.80;64.90;;;;;;5074712;28;20048;-70
2022/07/12 12:52:11;;;;;;;;;;;29.80;65.50;;;;;;5058391;28;20039;-71
2022/07/12 12:54:38;;;;;;;2.40;0.30;;;29.90;61.60;;;;;;5076208;28;19999;-71
2022/07/12 12:57:08;;;;;;;1.08;0.32;;;30.00;65.20;;;;;;5075192;28;20032;-71
2022/07/12 12:59:34;;;;;;;2.40;0.40;;;30.10;59.40;;;;;;5073723;28;20033;-71